Time;durP1;ratioP1;P1;durP2;ratioP2;P2;SDS_P1;SDS_P2;PMS_P1;PMS_P2;Temp;Humidity;BMP_temperature;BMP_pressure;BME280_temperature;BME280_humidity;BME280_pressure;Samples;Min_cycle;Max_cycle;Signal;HPM_P1;HPM_P2
2021/06/26 00:00:11;;;;;;;;;4.00;4.00;;;;;;;;3559097;39;113840;-74
2021/06/26 00:02:38;;;;;;;;;3.00;3.00;;;;;;;;3559352;39;111994;-76
2021/06/26 00:05:05;;;;;;;;;2.75;2.75;;;;;;;;3559242;39;113255;-73
2021/06/26 00:07:33;;;;;;;;;4.00;4.00;;;;;;;;3559638;39;113809;-75
2021/06/26 00:10:00;;;;;;;;;5.00;4.25;;;;;;;;3560081;39;111995;-75
2021/06/26 00:12:27;;;;;;;;;4.00;4.00;;;;;;;;3558542;39;113761;-75
2021/06/26 00:14:53;;;;;;;;;3.00;3.00;;;;;;;;3560942;39;114716;-75
2021/06/26 00:17:20;;;;;;;;;3.00;3.00;;;;;;;;3560011;39;113232;-74
2021/06/26 00:19:46;;;;;;;;;4.25;4.00;;;;;;;;3558782;39;113898;-74
2021/06/26 00:22:13;;;;;;;;;3.00;2.00;;;;;;;;3559537;39;111765;-74
2021/06/26 00:24:41;;;;;;;;;4.00;4.00;;;;;;;;3559392;39;113878;-75
2021/06/26 00:27:08;;;;;;;;;3.00;3.00;;;;;;;;3559917;39;114159;-75
2021/06/26 00:29:34;;;;;;;;;5.50;4.00;;;;;;;;3558829;39;112955;-74
2021/06/26 00:32:01;;;;;;;;;3.50;2.00;;;;;;;;3560112;39;113284;-76
2021/06/26 00:34:28;;;;;;;;;4.25;3.00;;;;;;;;3557025;39;113336;-74
2021/06/26 00:36:54;;;;;;;;;4.75;4.00;;;;;;;;3558574;39;113689;-75
2021/06/26 00:39:21;;;;;;;;;2.00;2.00;;;;;;;;3559484;39;114115;-75
2021/06/26 00:41:49;;;;;;;;;5.50;2.00;;;;;;;;3558881;39;111727;-75
2021/06/26 00:44:16;;;;;;;;;3.00;3.00;;;;;;;;3559681;39;113469;-74
2021/06/26 00:46:43;;;;;;;;;2.00;2.00;;;;;;;;3560806;39;113916;-75
2021/06/26 00:49:10;;;;;;;;;3.75;2.75;;;;;;;;3559126;39;112994;-75
2021/06/26 00:51:36;;;;;;;;;2.00;2.00;;;;;;;;3560156;39;113791;-75
2021/06/26 00:54:03;;;;;;;;;2.50;2.25;;;;;;;;3559350;39;113876;-76
2021/06/26 00:56:29;;;;;;;;;3.00;3.00;;;;;;;;3561152;39;111963;-76
2021/06/26 00:58:57;;;;;;;;;2.00;2.00;;;;;;;;3559799;39;113987;-75
2021/06/26 01:01:24;;;;;;;;;2.00;2.00;;;;;;;;3558280;39;112320;-75
2021/06/26 01:03:51;;;;;;;;;3.00;3.00;;;;;;;;3560029;39;113615;-76
2021/06/26 01:06:17;;;;;;;;;2.00;2.00;;;;;;;;3558681;39;113883;-76
2021/06/26 01:08:44;;;;;;;;;3.50;3.50;;;;;;;;3560522;39;111758;-76
2021/06/26 01:11:10;;;;;;;;;3.00;3.00;;;;;;;;3559117;39;113401;-76
2021/06/26 01:13:37;;;;;;;;;4.25;2.00;;;;;;;;3558781;39;113785;-76
2021/06/26 01:16:05;;;;;;;;;4.00;3.75;;;;;;;;3559986;39;112160;-75
2021/06/26 01:18:32;;;;;;;;;3.00;2.75;;;;;;;;3560707;39;113654;-75
2021/06/26 01:20:58;;;;;;;;;2.00;1.75;;;;;;;;3560045;39;111874;-76
2021/06/26 01:23:26;;;;;;;;;5.00;3.00;;;;;;;;3558291;39;114088;-75
2021/06/26 01:25:53;;;;;;;;;2.75;2.75;;;;;;;;3559683;39;114936;-75
2021/06/26 01:28:19;;;;;;;;;2.50;2.00;;;;;;;;3557958;39;112171;-75
2021/06/26 01:30:46;;;;;;;;;4.00;2.00;;;;;;;;3561033;39;113564;-75
2021/06/26 01:33:14;;;;;;;;;2.25;2.25;;;;;;;;3558910;39;114301;-77
2021/06/26 01:35:40;;;;;;;;;4.25;2.75;;;;;;;;3559199;39;112701;-76
2021/06/26 01:38:08;;;;;;;;;2.00;2.00;;;;;;;;3558893;39;113196;-75
2021/06/26 01:40:36;;;;;;;;;2.50;2.50;;;;;;;;3561433;39;113904;-76
2021/06/26 01:43:03;;;;;;;;;2.50;2.50;;;;;;;;3560413;39;113389;-75
2021/06/26 01:45:29;;;;;;;;;3.00;2.25;;;;;;;;3558016;39;114020;-77
2021/06/26 01:47:57;;;;;;;;;2.50;2.00;;;;;;;;3560214;39;112031;-76
2021/06/26 01:50:25;;;;;;;;;3.50;2.25;;;;;;;;3559911;39;113391;-76
2021/06/26 01:52:51;;;;;;;;;3.00;2.00;;;;;;;;3557936;39;113857;-79
2021/06/26 01:55:19;;;;;;;;;2.00;2.00;;;;;;;;3559569;39;111912;-76
2021/06/26 01:57:48;;;;;;;;;2.00;2.00;;;;;;;;3558480;39;113562;-76
2021/06/26 02:00:15;;;;;;;;;4.50;2.00;;;;;;;;3558834;39;113947;-76
2021/06/26 02:02:42;;;;;;;;;5.00;3.00;;;;;;;;3561635;39;112118;-75
2021/06/26 02:05:09;;;;;;;;;2.75;2.75;;;;;;;;3558413;39;113872;-78
2021/06/26 02:07:36;;;;;;;;;3.00;2.00;;;;;;;;3559513;39;111885;-82
2021/06/26 02:10:04;;;;;;;;;2.25;2.25;;;;;;;;3562484;39;113522;-81
2021/06/26 02:12:30;;;;;;;;;3.50;2.50;;;;;;;;3560840;39;114482;-84
2021/06/26 02:14:58;;;;;;;;;5.00;2.25;;;;;;;;3556550;39;111861;-81
2021/06/26 02:17:25;;;;;;;;;2.00;2.00;;;;;;;;3556747;39;113091;-84
2021/06/26 02:19:51;;;;;;;;;2.00;2.00;;;;;;;;3560274;39;113844;-84
2021/06/26 02:22:18;;;;;;;;;3.00;3.00;;;;;;;;3559411;39;113263;-79
2021/06/26 02:24:45;;;;;;;;;3.00;3.00;;;;;;;;3560390;39;113317;-78
2021/06/26 02:27:11;;;;;;;;;3.00;3.00;;;;;;;;3558774;39;111797;-77
2021/06/26 02:29:38;;;;;;;;;1.50;1.50;;;;;;;;3554829;39;112556;-77
2021/06/26 02:32:06;;;;;;;;;1.00;1.00;;;;;;;;3559972;39;113945;-78
2021/06/26 02:34:33;;;;;;;;;3.00;2.25;;;;;;;;3559428;39;111850;-78
2021/06/26 02:37:00;;;;;;;;;2.75;2.75;;;;;;;;3560571;39;113447;-78
2021/06/26 02:39:27;;;;;;;;;2.00;2.00;;;;;;;;3558406;39;113893;-78
2021/06/26 02:41:53;;;;;;;;;2.00;2.00;;;;;;;;3559073;39;111766;-78
2021/06/26 02:44:20;;;;;;;;;1.75;1.75;;;;;;;;3562664;39;113385;-78
2021/06/26 02:46:46;;;;;;;;;4.00;3.00;;;;;;;;3559267;39;111884;-78
2021/06/26 02:49:14;;;;;;;;;2.75;2.75;;;;;;;;3560001;39;113363;-79
2021/06/26 02:51:41;;;;;;;;;3.00;3.00;;;;;;;;3559155;39;113893;-78
2021/06/26 02:54:07;;;;;;;;;3.00;3.00;;;;;;;;3560085;39;112230;-78
2021/06/26 02:56:34;;;;;;;;;2.00;2.00;;;;;;;;3560111;39;113000;-78
2021/06/26 02:59:00;;;;;;;;;3.00;3.00;;;;;;;;3558611;39;113895;-78
2021/06/26 03:01:27;;;;;;;;;3.00;3.00;;;;;;;;3560694;39;111956;-78
2021/06/26 03:03:53;;;;;;;;;3.00;3.00;;;;;;;;3560582;39;113372;-79
2021/06/26 03:06:21;;;;;;;;;2.50;2.50;;;;;;;;3561167;39;113855;-79
2021/06/26 03:08:48;;;;;;;;;2.00;2.00;;;;;;;;3556528;39;112482;-78
2021/06/26 03:11:14;;;;;;;;;2.00;2.00;;;;;;;;3559524;39;113879;-79
2021/06/26 03:13:41;;;;;;;;;3.00;3.00;;;;;;;;3560502;39;111827;-78
2021/06/26 03:16:08;;;;;;;;;3.00;3.00;;;;;;;;3559766;39;113898;-78
2021/06/26 03:18:34;;;;;;;;;1.50;1.50;;;;;;;;3558688;39;113705;-78
2021/06/26 03:21:01;;;;;;;;;3.00;3.00;;;;;;;;3560212;39;112734;-76
2021/06/26 03:23:30;;;;;;;;;2.00;2.00;;;;;;;;3555307;39;113050;-78
2021/06/26 03:25:56;;;;;;;;;1.00;1.00;;;;;;;;3562163;39;114079;-78
2021/06/26 03:28:23;;;;;;;;;2.00;2.00;;;;;;;;3561199;39;111988;-77
2021/06/26 03:30:49;;;;;;;;;2.00;2.00;;;;;;;;3558317;39;114684;-77
2021/06/26 03:33:16;;;;;;;;;2.00;2.00;;;;;;;;3559946;39;111725;-78
2021/06/26 03:35:43;;;;;;;;;2.00;2.00;;;;;;;;3559471;39;114044;-77
2021/06/26 03:38:09;;;;;;;;;2.75;2.75;;;;;;;;3558255;39;113732;-78
2021/06/26 03:40:40;;;;;;;;;2.25;2.25;;;;;;;;3561535;39;112062;-77
2021/06/26 03:43:06;;;;;;;;;2.25;2.00;;;;;;;;3558890;39;114410;-78
2021/06/26 03:45:33;;;;;;;;;5.25;2.50;;;;;;;;3558790;39;112889;-77
2021/06/26 03:47:59;;;;;;;;;3.25;3.25;;;;;;;;3560381;39;111814;-77
2021/06/26 03:50:26;;;;;;;;;3.25;3.25;;;;;;;;3561236;39;113371;-78
2021/06/26 03:52:53;;;;;;;;;3.00;3.00;;;;;;;;3559384;39;112010;-77
2021/06/26 03:55:19;;;;;;;;;4.00;4.00;;;;;;;;3560837;39;113272;-77
2021/06/26 03:57:47;;;;;;;;;3.00;3.00;;;;;;;;3560882;39;113951;-77
2021/06/26 04:00:14;;;;;;;;;3.00;3.00;;;;;;;;3559884;39;111749;-77
2021/06/26 04:02:41;;;;;;;;;4.00;3.00;;;;;;;;3560993;39;113120;-77
2021/06/26 04:05:08;;;;;;;;;4.00;3.25;;;;;;;;3559215;39;113812;-77
2021/06/26 04:07:34;;;;;;;;;4.00;3.00;;;;;;;;3559342;39;112256;-79
2021/06/26 04:10:01;;;;;;;;;5.00;3.00;;;;;;;;3560306;39;113394;-78
2021/06/26 04:12:27;;;;;;;;;2.00;2.00;;;;;;;;3557603;39;113222;-76
2021/06/26 04:14:55;;;;;;;;;2.25;2.25;;;;;;;;3558936;39;112493;-77
2021/06/26 04:17:22;;;;;;;;;4.25;3.25;;;;;;;;3558549;39;113993;-78
2021/06/26 04:19:48;;;;;;;;;4.75;3.00;;;;;;;;3560347;39;112157;-77
2021/06/26 04:22:15;;;;;;;;;2.50;2.50;;;;;;;;3559149;39;113629;-78
2021/06/26 04:24:42;;;;;;;;;3.00;3.00;;;;;;;;3558631;39;112723;-78
2021/06/26 04:27:09;;;;;;;;;2.00;2.00;;;;;;;;3559449;39;111940;-77
2021/06/26 04:29:35;;;;;;;;;3.00;3.00;;;;;;;;3559607;39;113263;-78
2021/06/26 04:32:04;;;;;;;;;2.75;2.75;;;;;;;;3558741;39;113798;-78
2021/06/26 04:34:30;;;;;;;;;2.75;2.00;;;;;;;;3562850;39;112405;-77
2021/06/26 04:36:57;;;;;;;;;5.00;3.00;;;;;;;;3558510;39;114614;-77
2021/06/26 04:39:23;;;;;;;;;2.50;2.50;;;;;;;;3560327;39;111795;-77
2021/06/26 04:41:50;;;;;;;;;2.50;2.50;;;;;;;;3558518;39;113293;-78
2021/06/26 04:44:16;;;;;;;;;2.25;2.25;;;;;;;;3559576;39;114172;-78
2021/06/26 04:46:43;;;;;;;;;4.00;3.00;;;;;;;;3559110;39;111835;-77
2021/06/26 04:49:11;;;;;;;;;2.00;2.00;;;;;;;;3559224;39;113238;-78
2021/06/26 04:51:38;;;;;;;;;3.00;3.00;;;;;;;;3557375;39;113929;-78
2021/06/26 04:54:05;;;;;;;;;2.00;2.00;;;;;;;;3562441;39;112009;-77
2021/06/26 04:56:32;;;;;;;;;3.00;2.00;;;;;;;;3558118;39;113917;-77
2021/06/26 04:58:58;;;;;;;;;3.00;3.00;;;;;;;;3559830;39;112012;-78
2021/06/26 05:01:25;;;;;;;;;2.25;2.25;;;;;;;;3560397;39;113281;-78
2021/06/26 05:03:52;;;;;;;;;4.00;3.25;;;;;;;;3557665;39;114497;-79
2021/06/26 05:06:20;;;;;;;;;1.50;1.00;;;;;;;;3558403;39;111974;-78
2021/06/26 05:08:46;;;;;;;;;2.75;2.75;;;;;;;;3559760;39;113324;-78
2021/06/26 05:11:13;;;;;;;;;3.00;3.00;;;;;;;;3558266;39;114155;-78
2021/06/26 05:13:39;;;;;;;;;3.25;3.00;;;;;;;;3559262;39;111896;-79
2021/06/26 05:16:06;;;;;;;;;3.00;3.00;;;;;;;;3561576;39;113375;-79
2021/06/26 05:18:33;;;;;;;;;2.50;2.50;;;;;;;;3557249;39;112222;-78
2021/06/26 05:20:59;;;;;;;;;2.00;1.00;;;;;;;;3559773;39;113059;-78
2021/06/26 05:23:27;;;;;;;;;3.25;3.25;;;;;;;;3557736;39;113835;-77
2021/06/26 05:25:54;;;;;;;;;4.50;4.50;;;;;;;;3560216;39;111743;-77
2021/06/26 05:28:20;;;;;;;;;3.75;3.75;;;;;;;;3559993;39;113529;-77
2021/06/26 05:30:47;;;;;;;;;3.00;3.00;;;;;;;;3558050;39;113883;-77
2021/06/26 05:33:14;;;;;;;;;5.00;3.00;;;;;;;;3559558;39;112044;-77
2021/06/26 05:35:41;;;;;;;;;3.00;3.00;;;;;;;;3561600;39;113520;-76
2021/06/26 05:38:07;;;;;;;;;4.00;4.00;;;;;;;;3561680;39;114335;-78
2021/06/26 05:40:36;;;;;;;;;5.00;5.00;;;;;;;;3559560;39;113344;-78
2021/06/26 05:43:02;;;;;;;;;5.00;4.00;;;;;;;;3558192;39;113958;-77
2021/06/26 05:45:29;;;;;;;;;6.00;5.00;;;;;;;;3554262;39;112067;-76
2021/06/26 05:47:56;;;;;;;;;5.50;4.50;;;;;;;;3560119;39;112454;-78
2021/06/26 05:50:22;;;;;;;;;3.50;3.25;;;;;;;;3559220;39;113929;-78
2021/06/26 05:52:49;;;;;;;;;4.00;4.00;;;;;;;;3558642;39;111999;-76
2021/06/26 05:55:17;;;;;;;;;5.50;5.50;;;;;;;;3560148;39;113276;-78
2021/06/26 05:57:45;;;;;;;;;5.50;5.00;;;;;;;;3559002;39;113854;-79
2021/06/26 06:00:12;;;;;;;;;5.00;5.00;;;;;;;;3560481;39;112872;-78
2021/06/26 06:02:39;;;;;;;;;5.00;5.00;;;;;;;;3558489;39;114137;-77
2021/06/26 06:05:07;;;;;;;;;5.50;5.00;;;;;;;;3558406;39;112233;-77
2021/06/26 06:07:34;;;;;;;;;5.75;5.25;;;;;;;;3559289;39;113263;-77
2021/06/26 06:10:01;;;;;;;;;5.25;5.00;;;;;;;;3557788;39;113987;-77
2021/06/26 06:12:27;;;;;;;;;5.00;5.00;;;;;;;;3559506;39;111928;-77
2021/06/26 06:14:55;;;;;;;;;5.00;4.00;;;;;;;;3558095;39;113374;-77
2021/06/26 06:17:22;;;;;;;;;6.50;5.00;;;;;;;;3558883;39;114050;-77
2021/06/26 06:19:48;;;;;;;;;8.75;8.50;;;;;;;;3556961;39;111978;-75
2021/06/26 06:22:15;;;;;;;;;7.25;7.25;;;;;;;;3561396;39;114041;-77
2021/06/26 06:24:42;;;;;;;;;10.00;7.25;;;;;;;;3557209;39;112173;-76
2021/06/26 06:27:08;;;;;;;;;7.00;6.00;;;;;;;;3557986;39;113551;-76
2021/06/26 06:29:35;;;;;;;;;6.25;5.25;;;;;;;;3557030;39;113819;-77
2021/06/26 06:32:03;;;;;;;;;9.50;7.75;;;;;;;;3554872;39;112167;-84
2021/06/26 06:34:30;;;;;;;;;9.50;7.00;;;;;;;;3558878;39;113368;-88
2021/06/26 06:36:56;;;;;;;;;8.00;6.50;;;;;;;;3558120;39;113862;-75
2021/06/26 06:39:24;;;;;;;;;5.50;5.50;;;;;;;;3559406;39;112095;-77
2021/06/26 06:41:50;;;;;;;;;6.00;5.50;;;;;;;;3558032;39;113889;-78
2021/06/26 06:44:17;;;;;;;;;6.00;6.00;;;;;;;;3560293;39;112479;-77
2021/06/26 06:46:43;;;;;;;;;6.75;6.75;;;;;;;;3561131;39;113418;-80
2021/06/26 06:49:12;;;;;;;;;8.25;7.00;;;;;;;;3560545;39;113781;-76
2021/06/26 06:51:38;;;;;;;;;6.25;6.00;;;;;;;;3561185;39;111875;-77
2021/06/26 06:54:06;;;;;;;;;6.00;6.00;;;;;;;;3558737;39;113348;-77
2021/06/26 06:56:32;;;;;;;;;6.00;6.00;;;;;;;;3557743;39;114008;-76
2021/06/26 06:58:59;;;;;;;;;9.50;7.00;;;;;;;;3559505;39;111805;-77
2021/06/26 07:01:26;;;;;;;;;4.00;4.00;;;;;;;;3559980;39;113355;-77
2021/06/26 07:03:53;;;;;;;;;1.50;1.50;;;;;;;;3559475;39;113970;-80
2021/06/26 07:06:21;;;;;;;;;6.00;6.00;;;;;;;;3560562;39;113388;-77
2021/06/26 07:08:48;;;;;;;;;6.75;6.75;;;;;;;;3555861;39;113041;-76
2021/06/26 07:11:14;;;;;;;;;11.25;10.25;;;;;;;;3559937;39;112156;-77
2021/06/26 07:13:41;;;;;;;;;7.75;6.75;;;;;;;;3560172;39;113134;-78
2021/06/26 07:16:08;;;;;;;;;9.00;8.25;;;;;;;;3559069;39;114259;-80
2021/06/26 07:18:34;;;;;;;;;7.25;7.25;;;;;;;;3560861;39;112263;-82
2021/06/26 07:21:01;;;;;;;;;6.50;4.50;;;;;;;;3561967;39;113404;-77
2021/06/26 07:23:29;;;;;;;;;3.00;3.00;;;;;;;;3560180;39;113830;-77
2021/06/26 07:25:55;;;;;;;;;4.33;4.00;;;;;;;;3562027;39;111845;-77
2021/06/26 07:28:22;;;;;;;;;5.33;5.33;;;;;;;;3558288;39;114040;-75
2021/06/26 07:30:48;;;;;;;;;6.00;6.00;;;;;;;;3560410;39;112245;-74
2021/06/26 07:33:15;;;;;;;;;4.33;4.33;;;;;;;;3562111;39;113693;-75
2021/06/26 07:35:42;;;;;;;;;5.33;5.33;;;;;;;;3560013;39;114741;-75
2021/06/26 07:38:08;;;;;;;;;3.67;3.00;;;;;;;;3559579;39;112191;-77
2021/06/26 07:40:36;;;;;;;;;8.33;5.33;;;;;;;;3559781;39;113196;-77
2021/06/26 07:43:03;;;;;;;;;4.00;3.00;;;;;;;;3559738;39;114011;-77
2021/06/26 07:45:29;;;;;;;;;4.00;3.00;;;;;;;;3555655;39;112279;-79
2021/06/26 07:47:56;;;;;;;;;3.00;3.00;;;;;;;;3563529;39;113682;-87
2021/06/26 07:50:22;;;;;;;;;3.00;3.00;;;;;;;;3559052;39;111925;-78
2021/06/26 07:52:49;;;;;;;;;4.00;4.00;;;;;;;;3561044;39;113243;-80
2021/06/26 07:55:16;;;;;;;;;3.33;3.00;;;;;;;;3561155;39;113896;-75
2021/06/26 07:57:43;;;;;;;;;6.00;6.00;;;;;;;;3559934;39;112137;-74
2021/06/26 08:00:10;;;;;;;;;4.00;4.00;;;;;;;;3559421;39;113459;-75
2021/06/26 08:02:37;;;;;;;;;4.00;4.00;;;;;;;;3559353;39;113998;-80
2021/06/26 08:05:04;;;;;;;;;3.33;3.33;;;;;;;;3559909;39;111830;-78
2021/06/26 08:07:31;;;;;;;;;9.33;8.00;;;;;;;;3561482;39;113759;-79
2021/06/26 08:09:57;;;;;;;;;11.33;11.00;;;;;;;;3562820;39;114997;-76
2021/06/26 08:12:24;;;;;;;;;4.33;2.33;;;;;;;;3560627;39;113319;-83
2021/06/26 08:14:52;;;;;;;;;2.00;2.00;;;;;;;;3558698;39;114068;-85
2021/06/26 08:17:19;;;;;;;;;4.00;2.33;;;;;;;;3561292;39;112556;-87
2021/06/26 08:19:45;;;;;;;;;2.00;2.00;;;;;;;;3561570;39;113348;-88
2021/06/26 08:22:12;;;;;;;;;2.00;2.00;;;;;;;;3561610;39;114137;-90
2021/06/26 08:24:39;;;;;;;;;3.00;3.00;;;;;;;;3567085;39;111838;-77
2021/06/26 08:27:06;;;;;;;;;4.33;3.00;;;;;;;;3563204;39;113266;-75
2021/06/26 08:29:32;;;;;;;;;2.00;2.00;;;;;;;;3562771;39;114202;-74
2021/06/26 08:32:00;;;;;;;;;3.67;3.67;;;;;;;;3566084;39;112368;-78
2021/06/26 08:34:27;;;;;;;;;4.67;4.67;;;;;;;;3557984;39;114226;-76
2021/06/26 08:36:53;;;;;;;;;6.33;6.33;;;;;;;;3560561;39;112684;-70
2021/06/26 08:39:20;;;;;;;;;3.00;3.00;;;;;;;;3558103;39;113337;-71
2021/06/26 08:41:48;;;;;;;;;1.00;1.00;;;;;;;;3559320;39;114097;-73
2021/06/26 08:44:14;;;;;;;;;2.00;2.00;;;;;;;;3558593;39;112366;-69
2021/06/26 08:46:42;;;;;;;;;2.00;2.00;;;;;;;;3559285;39;113064;-69
2021/06/26 08:49:10;;;;;;;;;4.00;4.00;;;;;;;;3558548;39;113994;-71
2021/06/26 08:51:37;;;;;;;;;10.00;7.33;;;;;;;;3561352;39;111865;-70
2021/06/26 08:54:04;;;;;;;;;6.00;3.75;;;;;;;;3558695;39;113068;-70
2021/06/26 08:56:31;;;;;;;;;3.25;2.50;;;;;;;;3557943;39;111954;-69
2021/06/26 08:58:57;;;;;;;;;5.00;5.00;;;;;;;;3557870;39;112747;-68
2021/06/26 09:01:24;;;;;;;;;2.25;2.25;;;;;;;;3562691;39;114293;-69
2021/06/26 09:04:01;;;;;;;;;3.25;2.25;;;;;;;;3560193;39;111932;-69
2021/06/26 09:06:32;;;;;;;;;1.00;0.75;;;;;;;;3562106;39;112984;-68
2021/06/26 09:08:59;;;;;;;;;3.00;1.25;;;;;;;;3561156;39;113903;-69
2021/06/26 09:11:26;;;;;;;;;3.25;3.25;;;;;;;;3559462;39;111887;-68
2021/06/26 09:13:52;;;;;;;;;6.50;4.75;;;;;;;;3565413;39;113321;-68
2021/06/26 09:16:20;;;;;;;;;0.75;0.75;;;;;;;;3561496;39;111943;-68
2021/06/26 09:18:47;;;;;;;;;3.67;3.67;;;;;;;;3560650;39;112313;-69
2021/06/26 09:21:24;;;;;;;;;7.00;6.67;;;;;;;;3556740;39;113250;-68
2021/06/26 09:24:00;;;;;;;;;5.00;5.00;;;;;;;;3562466;39;111989;-69
2021/06/26 09:26:27;;;;;;;;;6.00;6.00;;;;;;;;3560072;39;112276;-68
2021/06/26 13:49:51;;;;;;;;;1.00;0.00;;;;;;;;3548461;39;1423470;-77
2021/06/26 13:52:17;;;;;;;;;1.33;0.00;;;;;;;;3575682;39;113915;-77
2021/06/26 13:54:44;;;;;;;;;0.00;0.00;;;;;;;;3577533;39;112397;-75
2021/06/26 13:57:10;;;;;;;;;1.00;0.00;;;;;;;;3576245;39;113360;-75
2021/06/26 13:59:37;;;;;;;;;1.00;1.00;;;;;;;;3576667;39;113909;-76
2021/06/26 14:02:04;;;;;;;;;1.00;1.00;;;;;;;;3576788;39;112173;-78
2021/06/26 14:04:31;;;;;;;;;0.67;0.67;;;;;;;;3577440;39;113812;-75
2021/06/26 14:07:01;;;;;;;;;0.00;0.00;;;;;;;;3575759;39;114254;-77
2021/06/26 14:09:27;;;;;;;;;0.00;0.00;;;;;;;;3579677;39;113125;-74
2021/06/26 14:11:54;;;;;;;;;1.00;0.00;;;;;;;;3576585;39;113927;-72
2021/06/26 14:14:21;;;;;;;;;0.33;0.33;;;;;;;;3576881;39;112166;-72
2021/06/26 14:16:47;;;;;;;;;2.00;2.00;;;;;;;;3575611;39;113253;-76
2021/06/26 14:19:14;;;;;;;;;0.00;0.00;;;;;;;;3580902;39;114073;-72
2021/06/26 14:21:40;;;;;;;;;0.00;0.00;;;;;;;;3577543;39;112133;-72
2021/06/26 14:24:09;;;;;;;;;1.00;1.00;;;;;;;;3576748;39;113371;-72
2021/06/26 14:26:35;;;;;;;;;0.00;0.00;;;;;;;;3574040;39;112939;-72
2021/06/26 14:29:04;;;;;;;;;0.00;0.00;;;;;;;;3574476;39;111896;-76
2021/06/26 14:31:31;;;;;;;;;0.33;0.33;;;;;;;;3576173;39;113166;-76
2021/06/26 14:33:57;;;;;;;;;0.00;0.00;;;;;;;;3576107;39;112852;-75
2021/06/26 14:36:24;;;;;;;;;2.00;0.00;;;;;;;;3577436;39;113301;-76
2021/06/26 14:38:51;;;;;;;;;0.00;0.00;;;;;;;;3575154;39;113859;-75
2021/06/26 14:41:18;;;;;;;;;1.00;1.00;;;;;;;;3577250;39;111850;-76
2021/06/26 14:43:45;;;;;;;;;3.00;1.00;;;;;;;;3575655;39;113281;-73
2021/06/26 14:46:14;;;;;;;;;0.00;0.00;;;;;;;;3576558;39;113877;-75
2021/06/26 14:48:41;;;;;;;;;3.00;2.00;;;;;;;;3575099;39;111905;-74
2021/06/26 14:51:08;;;;;;;;;2.67;2.67;;;;;;;;3572108;39;112474;-72
2021/06/26 14:53:36;;;;;;;;;0.00;0.00;;;;;;;;3578247;39;114113;-75
2021/06/26 14:56:02;;;;;;;;;0.67;0.67;;;;;;;;3576536;39;113173;-76
2021/06/26 14:58:30;;;;;;;;;1.00;0.00;;;;;;;;3576509;39;114027;-75
2021/06/26 15:00:57;;;;;;;;;1.00;1.00;;;;;;;;3569852;39;112644;-76
2021/06/26 15:03:24;;;;;;;;;1.67;1.67;;;;;;;;3568849;39;113613;-75
2021/06/26 15:05:50;;;;;;;;;0.00;0.00;;;;;;;;3571824;39;114178;-72
2021/06/26 15:08:17;;;;;;;;;1.00;1.00;;;;;;;;3570610;39;111915;-72
2021/06/26 15:10:43;;;;;;;;;1.00;0.33;;;;;;;;3569903;39;113203;-76
2021/06/26 15:13:10;;;;;;;;;1.00;1.00;;;;;;;;3566345;39;113035;-74
2021/06/26 15:15:38;;;;;;;;;0.00;0.00;;;;;;;;3571676;39;112511;-75
2021/06/26 15:18:05;;;;;;;;;1.00;1.00;;;;;;;;3567985;39;113862;-75
2021/06/26 15:20:31;;;;;;;;;1.00;0.00;;;;;;;;3569141;39;112160;-76
2021/06/26 15:22:58;;;;;;;;;1.00;1.00;;;;;;;;3570280;39;113265;-76
2021/06/26 15:25:24;;;;;;;;;1.00;1.00;;;;;;;;3568432;39;114477;-77
2021/06/26 15:27:51;;;;;;;;;2.00;1.00;;;;;;;;3570519;39;111857;-75
2021/06/26 15:30:18;;;;;;;;;1.33;1.33;;;;;;;;3569103;39;113200;-76
2021/06/26 15:32:46;;;;;;;;;0.33;0.33;;;;;;;;3570094;39;114033;-78
2021/06/26 15:35:13;;;;;;;;;3.00;1.00;;;;;;;;3569816;39;111714;-75
2021/06/26 15:37:39;;;;;;;;;0.00;0.00;;;;;;;;3572255;39;113279;-76
2021/06/26 15:40:07;;;;;;;;;0.33;0.33;;;;;;;;3569748;39;111908;-75
2021/06/26 15:42:34;;;;;;;;;0.00;0.00;;;;;;;;3569313;39;113152;-77
2021/06/26 15:45:01;;;;;;;;;0.67;0.67;;;;;;;;3569568;39;114006;-75
2021/06/26 15:47:28;;;;;;;;;0.00;0.00;;;;;;;;3569554;39;111822;-77
2021/06/26 15:49:56;;;;;;;;;0.00;0.00;;;;;;;;3568914;39;113702;-77
2021/06/26 15:52:23;;;;;;;;;1.33;0.33;;;;;;;;3567427;39;114145;-77
2021/06/26 15:54:49;;;;;;;;;1.67;1.67;;;;;;;;3569728;39;111895;-76
2021/06/26 15:57:16;;;;;;;;;0.00;0.00;;;;;;;;3570427;39;113349;-76
2021/06/26 15:59:42;;;;;;;;;0.00;0.00;;;;;;;;3573174;39;111835;-75
2021/06/26 16:02:11;;;;;;;;;1.00;1.00;;;;;;;;3568524;39;113662;-74
2021/06/26 16:04:37;;;;;;;;;2.00;1.67;;;;;;;;3570098;39;112168;-77
2021/06/26 16:07:05;;;;;;;;;3.00;1.00;;;;;;;;3568739;39;112279;-74
2021/06/26 16:09:32;;;;;;;;;2.00;1.00;;;;;;;;3569668;39;113334;-75
2021/06/26 16:11:59;;;;;;;;;1.00;1.00;;;;;;;;3567763;39;113913;-75
2021/06/26 16:14:26;;;;;;;;;0.00;0.00;;;;;;;;3568834;39;111763;-74
2021/06/26 16:16:53;;;;;;;;;2.00;2.00;;;;;;;;3570245;39;113263;-74
2021/06/26 16:19:19;;;;;;;;;2.00;2.00;;;;;;;;3570950;39;113915;-75
2021/06/26 16:21:46;;;;;;;;;2.00;2.00;;;;;;;;3569892;39;113685;-74
2021/06/26 16:24:14;;;;;;;;;1.00;1.00;;;;;;;;3568433;39;113926;-75
2021/06/26 16:26:40;;;;;;;;;2.00;2.00;;;;;;;;3569607;39;112241;-73
2021/06/26 16:29:07;;;;;;;;;4.00;2.00;;;;;;;;3569254;39;113451;-72
2021/06/26 16:31:33;;;;;;;;;4.00;3.00;;;;;;;;3565158;39;113006;-73
2021/06/26 16:34:00;;;;;;;;;3.00;3.00;;;;;;;;3569775;39;111856;-74
2021/06/26 16:36:26;;;;;;;;;3.00;3.00;;;;;;;;3568614;39;113251;-76
2021/06/26 16:38:55;;;;;;;;;3.00;3.00;;;;;;;;3569883;39;114377;-72
2021/06/26 16:41:24;;;;;;;;;6.00;5.00;;;;;;;;3571223;39;111908;-72
2021/06/26 16:43:50;;;;;;;;;4.00;4.00;;;;;;;;3567881;39;114221;-73
2021/06/26 16:46:17;;;;;;;;;5.00;4.00;;;;;;;;3570085;39;112108;-74
2021/06/26 16:48:43;;;;;;;;;4.33;3.00;;;;;;;;3568814;39;113561;-73
2021/06/26 16:51:10;;;;;;;;;5.00;4.00;;;;;;;;3568611;39;114041;-73
2021/06/26 16:53:37;;;;;;;;;3.00;3.00;;;;;;;;3569098;39;112159;-72
2021/06/26 16:56:04;;;;;;;;;5.33;4.00;;;;;;;;3569342;39;113225;-69
2021/06/26 16:58:33;;;;;;;;;4.50;4.50;;;;;;;;3563218;39;113117;-73
2021/06/26 17:01:00;;;;;;;;;5.33;5.00;;;;;;;;3567171;39;114655;-74
2021/06/26 17:03:27;;;;;;;;;5.00;4.00;;;;;;;;3570317;39;113179;-73
2021/06/26 17:05:54;;;;;;;;;3.67;3.67;;;;;;;;3566926;39;113170;-71
2021/06/26 17:08:21;;;;;;;;;4.00;4.00;;;;;;;;3568333;39;113225;-74
2021/06/26 17:10:49;;;;;;;;;3.67;3.67;;;;;;;;3567433;39;112826;-73
2021/06/26 17:13:16;;;;;;;;;4.33;4.00;;;;;;;;3568401;39;112104;-73
2021/06/26 17:15:44;;;;;;;;;3.00;3.00;;;;;;;;3569427;39;113006;-75
2021/06/26 17:18:10;;;;;;;;;4.00;4.00;;;;;;;;3567735;39;113933;-71
2021/06/26 17:20:37;;;;;;;;;6.67;5.00;;;;;;;;3568601;39;111854;-72
2021/06/26 17:23:05;;;;;;;;;5.33;5.33;;;;;;;;3567179;39;112598;-72
2021/06/26 17:25:32;;;;;;;;;4.33;4.33;;;;;;;;3570979;39;113791;-73
2021/06/26 17:27:59;;;;;;;;;4.67;4.67;;;;;;;;3569559;39;113506;-72
2021/06/26 17:30:25;;;;;;;;;7.33;5.00;;;;;;;;3568480;39;113814;-76
2021/06/26 17:32:53;;;;;;;;;4.33;3.67;;;;;;;;3567818;39;112521;-75
2021/06/26 17:35:20;;;;;;;;;5.00;3.67;;;;;;;;3568010;39;113348;-76
2021/06/26 17:37:47;;;;;;;;;6.67;4.67;;;;;;;;3569110;39;114236;-75
2021/06/26 17:40:14;;;;;;;;;4.00;4.00;;;;;;;;3568226;39;112031;-74
2021/06/26 17:42:40;;;;;;;;;5.00;5.00;;;;;;;;3567907;39;113536;-73
2021/06/26 17:45:50;;;;;;;;;8.00;4.67;;;;;;;;3570916;39;112915;-83
2021/06/26 17:48:17;;;;;;;;;3.67;2.33;;;;;;;;3565749;39;114151;-84
2021/06/26 17:50:45;;;;;;;;;6.00;5.00;;;;;;;;3565436;39;113070;-85
2021/06/26 17:53:11;;;;;;;;;5.00;4.33;;;;;;;;3565648;39;113690;-80
2021/06/26 17:55:39;;;;;;;;;4.67;4.00;;;;;;;;3560529;39;112946;-78
2021/06/26 17:58:06;;;;;;;;;4.00;3.00;;;;;;;;3567861;39;111769;-79
2021/06/26 18:00:33;;;;;;;;;4.00;4.00;;;;;;;;3562867;39;113263;-79
2021/06/26 18:03:02;;;;;;;;;5.00;3.67;;;;;;;;3562785;39;113850;-81
2021/06/26 18:05:29;;;;;;;;;6.00;5.67;;;;;;;;3567586;39;112712;-78
2021/06/26 18:07:55;;;;;;;;;7.33;7.33;;;;;;;;3565181;39;114003;-78
2021/06/26 18:10:22;;;;;;;;;3.33;3.33;;;;;;;;3567843;39;111827;-78
2021/06/26 18:12:51;;;;;;;;;5.00;4.33;;;;;;;;3560992;39;112442;-78
2021/06/26 18:15:17;;;;;;;;;5.33;4.33;;;;;;;;3567131;39;113816;-80
2021/06/26 18:17:44;;;;;;;;;4.00;4.00;;;;;;;;3565793;39;112094;-76
2021/06/26 18:20:15;;;;;;;;;5.00;4.00;;;;;;;;3566622;39;113223;-79
2021/06/26 18:22:41;;;;;;;;;3.00;3.00;;;;;;;;3564400;39;113967;-81
2021/06/26 18:25:08;;;;;;;;;4.00;4.00;;;;;;;;3566938;39;111972;-78
2021/06/26 18:27:35;;;;;;;;;5.00;3.00;;;;;;;;3567647;39;113357;-81
2021/06/26 18:30:02;;;;;;;;;4.00;4.00;;;;;;;;3566982;39;112166;-86
2021/06/26 18:32:28;;;;;;;;;6.00;3.33;;;;;;;;3565777;39;113238;-79
2021/06/26 18:34:55;;;;;;;;;3.67;3.67;;;;;;;;3564950;39;114621;-80
2021/06/26 18:37:23;;;;;;;;;4.00;3.33;;;;;;;;3567835;39;112301;-87
2021/06/26 18:39:49;;;;;;;;;4.67;3.67;;;;;;;;3566303;39;112609;-88
2021/06/26 18:42:18;;;;;;;;;4.00;4.00;;;;;;;;3566869;39;114320;-86
2021/06/26 18:44:44;;;;;;;;;4.33;4.33;;;;;;;;3566645;39;112277;-86
2021/06/26 18:47:11;;;;;;;;;5.00;5.00;;;;;;;;3567322;39;113193;-85